createdAt,value
2018-03-02T00:00:07.037Z,54.99
2018-03-02T00:02:33.330Z,54.65
2018-03-02T00:04:59.786Z,52.76
2018-03-02T00:07:26.214Z,52.30
2018-03-02T00:09:59.717Z,52.91
2018-03-02T00:12:26.042Z,53.68
2018-03-02T00:14:52.406Z,54.64
2018-03-02T00:17:18.761Z,53.42
2018-03-02T00:19:45.162Z,54.47
2018-03-02T00:22:11.515Z,56.49
2018-03-02T00:24:37.951Z,55.70
2018-03-02T00:27:04.313Z,55.62
2018-03-02T00:29:30.724Z,54.62
2018-03-02T00:31:57.165Z,56.89
2018-03-02T00:34:23.514Z,56.16
2018-03-02T00:36:49.874Z,54.79
2018-03-02T00:39:16.264Z,56.75
2018-03-02T00:41:42.686Z,56.24
2018-03-02T00:44:09.074Z,54.76
2018-03-02T00:46:35.426Z,58.76
2018-03-02T00:49:01.861Z,56.11
2018-03-02T00:51:28.201Z,55.38
2018-03-02T00:53:54.554Z,56.32
2018-03-02T00:56:20.900Z,56.11
2018-03-02T00:58:47.282Z,54.01
2018-03-02T01:01:13.627Z,54.50
2018-03-02T01:03:40.043Z,54.64
2018-03-02T01:06:06.425Z,54.14
2018-03-02T01:08:32.824Z,54.76
2018-03-02T01:10:59.220Z,55.65
2018-03-02T01:13:25.590Z,54.33
2018-03-02T01:15:52.003Z,55.51
2018-03-02T01:18:18.378Z,54.42
2018-03-02T01:20:44.867Z,55.39
2018-03-02T01:23:11.271Z,54.02
2018-03-02T01:25:37.688Z,54.30
2018-03-02T01:28:04.085Z,57.24
2018-03-02T01:30:30.487Z,62.11
2018-03-02T01:32:56.978Z,57.11
2018-03-02T01:35:23.329Z,56.63
2018-03-02T01:37:49.688Z,57.28
2018-03-02T01:40:16.027Z,55.91
2018-03-02T01:42:42.414Z,56.20
2018-03-02T01:45:08.790Z,54.93
2018-03-02T01:47:35.155Z,55.69
2018-03-02T01:50:01.514Z,56.09
2018-03-02T01:52:27.917Z,58.22
2018-03-02T01:54:54.241Z,58.54
2018-03-02T01:57:20.576Z,57.15
2018-03-02T01:59:46.907Z,59.17
2018-03-02T02:02:13.265Z,57.79
2018-03-02T02:04:39.683Z,56.49
2018-03-02T02:07:06.121Z,56.69
2018-03-02T02:09:32.477Z,56.10
2018-03-02T02:11:58.876Z,56.52
2018-03-02T02:14:25.299Z,57.22
2018-03-02T02:16:51.634Z,56.33
2018-03-02T02:19:18.069Z,54.53
2018-03-02T02:21:44.445Z,55.28
2018-03-02T02:24:10.797Z,57.69
2018-03-02T02:26:37.191Z,57.86
2018-03-02T02:29:03.566Z,54.54
2018-03-02T02:31:29.914Z,55.57
2018-03-02T02:33:56.253Z,56.18
2018-03-02T02:36:22.659Z,59.97
2018-03-02T02:38:49.009Z,56.44
2018-03-02T02:41:15.373Z,55.79
2018-03-02T02:43:41.763Z,55.42
2018-03-02T02:46:08.143Z,55.64
2018-03-02T02:48:34.552Z,55.91
2018-03-02T02:51:00.910Z,55.96
2018-03-02T02:53:27.283Z,55.55
2018-03-02T02:55:53.691Z,57.81
2018-03-02T02:58:20.098Z,59.66
2018-03-02T03:00:46.474Z,56.54
2018-03-02T03:03:12.852Z,55.47
2018-03-02T03:05:39.221Z,56.30
2018-03-02T03:08:05.569Z,56.00
2018-03-02T03:10:32.081Z,56.62
2018-03-02T03:12:58.418Z,56.99
2018-03-02T03:15:24.769Z,58.19
2018-03-02T03:17:51.159Z,57.56
2018-03-02T03:20:17.548Z,57.44
2018-03-02T03:22:43.988Z,58.33
2018-03-02T03:25:10.325Z,60.48
2018-03-02T03:27:36.649Z,58.11
2018-03-02T03:30:03.040Z,57.72
2018-03-02T03:32:29.425Z,58.06
2018-03-02T03:34:55.784Z,59.22
2018-03-02T03:37:22.178Z,58.61
2018-03-02T03:39:48.501Z,58.06
2018-03-02T03:42:14.838Z,57.54
2018-03-02T03:44:41.225Z,58.27
2018-03-02T03:47:07.607Z,58.43
2018-03-02T03:49:33.961Z,61.18
2018-03-02T03:52:00.322Z,60.68
2018-03-02T03:54:26.654Z,58.89
2018-03-02T03:56:53.037Z,58.19
2018-03-02T03:59:19.370Z,61.16
2018-03-02T04:01:45.773Z,59.89
2018-03-02T04:04:12.156Z,58.45
2018-03-02T04:06:38.513Z,57.97
2018-03-02T04:09:04.874Z,59.19
2018-03-02T04:11:31.218Z,61.41
2018-03-02T04:13:57.579Z,58.72
2018-03-02T04:16:23.939Z,57.29
2018-03-02T04:18:50.289Z,58.08
2018-03-02T04:21:16.655Z,58.41
2018-03-02T04:23:43.013Z,58.72
2018-03-02T04:26:09.434Z,61.22
2018-03-02T04:28:35.759Z,58.78
2018-03-02T04:31:02.170Z,57.64
2018-03-02T04:33:28.548Z,60.60
2018-03-02T04:35:54.896Z,57.80
2018-03-02T04:38:21.245Z,58.57
2018-03-02T04:40:47.640Z,56.52
2018-03-02T04:43:14.068Z,56.53
2018-03-02T04:45:40.423Z,57.62
2018-03-02T04:48:06.858Z,57.74
2018-03-02T04:50:33.201Z,59.24
2018-03-02T04:52:59.565Z,57.32
2018-03-02T04:55:25.934Z,58.04
2018-03-02T04:57:52.281Z,57.62
2018-03-02T05:00:18.717Z,58.80
2018-03-02T05:02:45.066Z,58.02
2018-03-02T05:05:11.581Z,58.29
2018-03-02T05:07:37.931Z,57.86
2018-03-02T05:10:04.278Z,57.48
2018-03-02T05:12:30.891Z,59.09
2018-03-02T05:14:57.262Z,67.62
2018-03-02T05:17:23.643Z,60.82
2018-03-02T05:19:50.018Z,58.73
2018-03-02T05:22:16.388Z,58.76
2018-03-02T05:24:42.734Z,64.72
2018-03-02T05:27:09.111Z,59.28
2018-03-02T05:29:35.461Z,59.93
2018-03-02T05:32:01.810Z,58.84
2018-03-02T05:34:28.161Z,57.88
2018-03-02T05:36:54.553Z,58.77
2018-03-02T05:39:20.881Z,57.33
2018-03-02T05:41:47.210Z,58.45
2018-03-02T05:44:13.542Z,57.87
2018-03-02T05:46:39.925Z,58.29
2018-03-02T05:49:06.306Z,57.84
2018-03-02T05:51:32.694Z,56.85
2018-03-02T05:53:59.065Z,57.77
2018-03-02T05:56:25.427Z,57.36
2018-03-02T05:58:51.878Z,57.28
2018-03-02T06:01:18.254Z,56.56
2018-03-02T06:03:44.625Z,57.63
2018-03-02T06:06:10.986Z,61.39
2018-03-02T06:08:37.362Z,69.93
2018-03-02T06:11:03.857Z,69.17
2018-03-02T06:13:30.440Z,61.24
2018-03-02T06:15:56.833Z,61.77
2018-03-02T06:18:23.466Z,61.36
2018-03-02T06:20:49.966Z,60.41
2018-03-02T06:23:16.393Z,60.09
2018-03-02T06:25:42.802Z,58.62
2018-03-02T06:28:09.385Z,58.68
2018-03-02T06:30:35.756Z,58.70
2018-03-02T06:33:02.351Z,61.71
2018-03-02T06:35:28.697Z,62.00
2018-03-02T06:37:55.071Z,60.66
2018-03-02T06:40:21.511Z,59.38
2018-03-02T06:42:47.932Z,58.86
2018-03-02T06:45:14.291Z,60.17
2018-03-02T06:47:40.770Z,61.33
2018-03-02T06:50:07.122Z,66.95
2018-03-02T06:52:33.769Z,66.74
2018-03-02T06:55:00.122Z,61.58
2018-03-02T06:57:26.581Z,61.10
2018-03-02T06:59:53.001Z,58.74
2018-03-02T07:02:19.452Z,60.11
2018-03-02T07:04:45.894Z,59.64
2018-03-02T07:07:12.316Z,58.39
2018-03-02T07:09:38.799Z,67.02
2018-03-02T07:12:05.358Z,59.84
2018-03-02T07:14:31.818Z,57.49
2018-03-02T07:16:58.226Z,58.75
2018-03-02T07:19:24.586Z,63.97
2018-03-02T07:21:50.946Z,60.77
2018-03-02T07:24:17.334Z,56.11
2018-03-02T07:26:43.878Z,56.10
2018-03-02T07:29:10.235Z,63.51
2018-03-02T07:31:36.654Z,57.27
2018-03-02T07:34:03.098Z,58.66
2018-03-02T07:36:29.560Z,57.28
2018-03-02T07:38:55.920Z,59.77
2018-03-02T07:41:22.298Z,64.02
2018-03-02T07:43:48.731Z,69.40
2018-03-02T07:46:15.135Z,59.93
2018-03-02T07:48:41.573Z,57.21
2018-03-02T07:51:08.011Z,58.90
2018-03-02T07:53:34.429Z,64.35
2018-03-02T07:56:00.849Z,61.22
2018-03-02T07:58:27.325Z,62.72
2018-03-02T08:00:53.717Z,61.45
2018-03-02T08:03:20.144Z,61.19
2018-03-02T08:05:46.503Z,64.36
2018-03-02T08:08:13.087Z,60.22
2018-03-02T08:10:39.435Z,63.17
2018-03-02T08:13:05.883Z,67.10
2018-03-02T08:15:32.314Z,69.92
2018-03-02T08:17:58.813Z,71.08
2018-03-02T08:20:25.243Z,66.28
2018-03-02T08:22:51.614Z,63.10
2018-03-02T08:25:17.972Z,63.29
2018-03-02T08:27:44.391Z,64.66
2018-03-02T08:30:10.730Z,63.61
2018-03-02T08:32:37.106Z,62.86
2018-03-02T08:35:03.546Z,64.29
2018-03-02T08:37:29.881Z,64.48
2018-03-02T08:39:56.246Z,70.09
2018-03-02T08:42:22.694Z,65.05
2018-03-02T08:44:49.093Z,64.29
2018-03-02T08:47:15.445Z,71.48
2018-03-02T08:49:41.825Z,71.18
2018-03-02T08:52:08.282Z,68.35
2018-03-02T08:54:34.682Z,65.46
2018-03-02T08:57:01.137Z,68.90
2018-03-02T08:59:27.741Z,68.64
2018-03-02T09:01:54.104Z,65.66
2018-03-02T09:04:20.449Z,64.71
2018-03-02T09:06:46.890Z,63.48
2018-03-02T09:09:13.227Z,63.75
2018-03-02T09:11:39.632Z,65.13
2018-03-02T09:14:06.224Z,63.95
2018-03-02T09:16:32.639Z,64.00
2018-03-02T09:18:59.056Z,63.84
2018-03-02T09:21:25.423Z,63.25
2018-03-02T09:23:51.793Z,63.20
2018-03-02T09:26:18.309Z,64.46
2018-03-02T09:28:44.643Z,63.89
2018-03-02T09:31:11.017Z,62.88
2018-03-02T09:33:37.358Z,62.87
2018-03-02T09:36:03.755Z,64.00
2018-03-02T09:38:30.102Z,65.56
2018-03-02T09:40:56.450Z,64.44
2018-03-02T09:43:22.874Z,64.51
2018-03-02T09:45:49.249Z,68.27
2018-03-02T09:48:15.625Z,71.34
2018-03-02T09:50:41.989Z,69.81
2018-03-02T09:53:08.334Z,65.54
2018-03-02T09:55:34.727Z,65.21
2018-03-02T09:58:01.082Z,64.90
2018-03-02T10:00:27.430Z,68.18
2018-03-02T10:02:53.807Z,70.55
2018-03-02T10:05:20.198Z,68.35
2018-03-02T10:07:46.578Z,67.34
2018-03-02T10:10:13.118Z,68.07
2018-03-02T10:12:39.501Z,69.61
2018-03-02T10:15:05.897Z,73.34
2018-03-02T10:17:32.281Z,73.09
2018-03-02T10:19:58.636Z,69.67
2018-03-02T10:22:25.074Z,68.87
2018-03-02T10:24:51.438Z,70.10
2018-03-02T10:27:17.974Z,70.17
2018-03-02T10:29:44.322Z,71.34
2018-03-02T10:32:10.774Z,72.10
2018-03-02T10:34:37.191Z,70.95
2018-03-02T10:37:03.672Z,69.89
2018-03-02T10:39:30.045Z,70.39
2018-03-02T10:41:56.535Z,70.33
2018-03-02T10:44:22.923Z,70.43
2018-03-02T10:46:49.304Z,70.56
2018-03-02T10:49:15.773Z,71.46
2018-03-02T10:51:42.185Z,70.52
2018-03-02T10:54:08.551Z,70.60
2018-03-02T10:56:34.953Z,72.41
2018-03-02T10:59:01.368Z,71.54
2018-03-02T11:01:27.730Z,72.05
2018-03-02T11:04:00.172Z,73.25
2018-03-02T11:06:26.625Z,71.63
2018-03-02T11:08:53.097Z,71.42
2018-03-02T11:11:19.499Z,70.94
2018-03-02T11:13:45.967Z,72.19
2018-03-02T11:16:12.377Z,71.16
2018-03-02T11:18:38.753Z,70.48
2018-03-02T11:21:05.160Z,70.22
2018-03-02T11:23:31.514Z,70.43
2018-03-02T11:25:57.870Z,71.54
2018-03-02T11:28:24.207Z,73.71
2018-03-02T11:30:50.695Z,71.98
2018-03-02T11:33:17.221Z,72.12
2018-03-02T11:35:43.626Z,73.00
2018-03-02T11:38:10.032Z,71.99
2018-03-02T11:40:36.438Z,72.60
2018-03-02T11:43:02.829Z,74.04
2018-03-02T11:45:29.226Z,71.67
2018-03-02T11:47:55.611Z,69.61
2018-03-02T11:50:22.187Z,69.71
2018-03-02T11:52:48.578Z,69.12
2018-03-02T11:55:15.161Z,69.08
2018-03-02T11:57:41.494Z,69.79
2018-03-02T12:00:07.902Z,71.79
2018-03-02T12:02:34.281Z,70.34
2018-03-02T12:05:00.658Z,69.65
2018-03-02T12:07:27.267Z,69.42
2018-03-02T12:09:53.954Z,70.08
2018-03-02T12:12:20.514Z,68.86
2018-03-02T12:14:46.918Z,71.11
2018-03-02T12:17:13.297Z,70.51
2018-03-02T12:19:39.713Z,70.49
2018-03-02T12:22:06.087Z,70.95
2018-03-02T12:24:32.467Z,70.24
2018-03-02T12:26:58.801Z,70.79
2018-03-02T12:29:25.287Z,71.28
2018-03-02T12:31:51.660Z,73.02
2018-03-02T12:34:18.209Z,71.52
2018-03-02T12:36:44.726Z,72.29
2018-03-02T12:39:11.105Z,71.83
2018-03-02T12:41:37.802Z,69.37
2018-03-02T12:44:04.260Z,69.32
2018-03-02T12:46:30.805Z,69.81
2018-03-02T12:48:57.258Z,71.46
2018-03-02T12:51:23.725Z,72.02
2018-03-02T12:53:50.068Z,72.02
2018-03-02T12:56:16.402Z,70.56
2018-03-02T12:58:42.769Z,68.81
2018-03-02T13:01:09.135Z,70.40
2018-03-02T13:03:35.831Z,69.11
2018-03-02T13:06:02.317Z,68.96
2018-03-02T13:08:28.708Z,70.37
2018-03-02T13:10:55.158Z,69.81
2018-03-02T13:13:21.542Z,68.35
2018-03-02T13:15:47.926Z,69.51
2018-03-02T13:18:26.568Z,69.97
2018-03-02T13:20:52.861Z,69.75
2018-03-02T13:23:19.642Z,71.83
2018-03-02T13:25:46.098Z,70.22
2018-03-02T13:28:24.899Z,69.39
2018-03-02T13:30:51.226Z,69.03
2018-03-02T13:33:29.878Z,69.70
2018-03-02T13:35:56.257Z,69.47
2018-03-02T13:38:22.690Z,70.56
2018-03-02T13:41:01.224Z,71.97
2018-03-02T13:43:27.627Z,71.58
2018-03-02T13:45:54.087Z,73.06
2018-03-02T13:48:41.396Z,72.82
2018-03-02T13:51:07.717Z,73.03
2018-03-02T13:53:34.086Z,73.59
2018-03-02T13:56:00.494Z,73.71
2018-03-02T13:58:26.965Z,70.83
2018-03-02T14:00:53.374Z,73.03
2018-03-02T14:16:46.623Z,71.56
2018-03-02T14:19:12.957Z,71.65
2018-03-02T14:21:39.411Z,70.56
2018-03-02T14:24:05.736Z,71.27
2018-03-02T14:26:32.109Z,72.19
2018-03-02T14:28:58.465Z,72.82
2018-03-02T14:31:24.850Z,72.83
2018-03-02T14:33:51.201Z,71.79
2018-03-02T14:36:17.579Z,71.37
2018-03-02T14:38:43.983Z,70.54
2018-03-02T14:41:10.334Z,70.13
2018-03-02T14:43:36.738Z,70.72
2018-03-02T14:46:03.138Z,69.73
2018-03-02T14:48:29.534Z,71.04
2018-03-02T14:50:55.877Z,72.21
2018-03-02T14:53:22.262Z,74.52
2018-03-02T14:55:48.697Z,74.58
2018-03-02T14:58:15.092Z,71.38
2018-03-02T15:00:41.461Z,71.54
2018-03-02T15:03:07.815Z,70.25
2018-03-02T15:05:34.304Z,69.57
2018-03-02T15:08:00.658Z,71.25
2018-03-02T15:10:27.199Z,71.86
2018-03-02T15:12:53.617Z,72.87
2018-03-02T15:15:20.042Z,70.41
2018-03-02T15:17:46.538Z,70.35
2018-03-02T15:20:12.845Z,70.70
2018-03-02T15:22:39.220Z,69.54
2018-03-02T15:25:05.600Z,69.71
2018-03-02T15:27:31.969Z,70.16
2018-03-02T15:29:58.312Z,70.35
2018-03-02T15:32:24.697Z,69.76
2018-03-02T15:34:51.060Z,70.08
2018-03-02T15:37:17.441Z,69.98
2018-03-02T15:39:43.814Z,71.92
2018-03-02T15:42:10.180Z,70.79
2018-03-02T15:44:36.621Z,70.68
2018-03-02T15:47:03.054Z,71.66
2018-03-02T15:49:29.471Z,72.92
2018-03-02T15:51:55.853Z,71.19
2018-03-02T15:54:22.246Z,71.70
2018-03-02T15:56:48.603Z,71.28
2018-03-02T15:59:14.954Z,72.93
2018-03-02T16:01:41.318Z,71.28
2018-03-02T16:04:07.660Z,71.77
2018-03-02T16:06:34.006Z,72.53
2018-03-02T16:09:00.354Z,72.81
2018-03-02T16:11:26.714Z,74.03
2018-03-02T16:13:53.111Z,73.07
2018-03-02T16:16:19.498Z,74.97
2018-03-02T16:18:45.967Z,72.63
2018-03-02T16:21:12.326Z,71.59
2018-03-02T16:23:38.731Z,71.72
2018-03-02T16:26:05.139Z,71.02
2018-03-02T16:28:31.480Z,70.33
2018-03-02T16:30:57.912Z,73.01
2018-03-02T16:33:24.333Z,70.63
2018-03-02T16:35:50.722Z,69.74
2018-03-02T16:38:17.107Z,69.81
2018-03-02T16:40:43.502Z,71.16
2018-03-02T16:43:09.904Z,70.67
2018-03-02T16:45:36.337Z,71.46
2018-03-02T16:48:02.706Z,70.66
2018-03-02T16:50:29.070Z,72.29
2018-03-02T16:52:55.422Z,71.49
2018-03-02T16:55:21.794Z,71.26
2018-03-02T16:57:48.354Z,71.24
2018-03-02T17:00:14.770Z,72.60
2018-03-02T17:02:41.203Z,74.53
2018-03-02T17:05:07.611Z,71.25
2018-03-02T17:07:34.162Z,70.33
2018-03-02T17:10:00.515Z,70.08
2018-03-02T17:12:26.966Z,70.46
2018-03-02T17:14:53.818Z,71.19
2018-03-02T17:17:20.250Z,70.53
2018-03-02T17:19:46.642Z,70.66
2018-03-02T17:22:12.988Z,71.42
2018-03-02T17:24:39.444Z,72.89
2018-03-02T17:27:05.858Z,71.83
2018-03-02T17:29:32.230Z,71.41
2018-03-02T17:31:58.661Z,71.47
2018-03-02T17:34:25.010Z,71.82
2018-03-02T17:36:51.405Z,71.81
2018-03-02T17:39:17.884Z,71.88
2018-03-02T17:41:44.246Z,71.25
2018-03-02T17:44:10.688Z,71.33
2018-03-02T17:46:37.062Z,71.64
2018-03-02T17:49:03.450Z,72.68
2018-03-02T17:51:29.810Z,72.61
2018-03-02T17:53:56.177Z,72.04
2018-03-02T17:56:22.626Z,72.44
2018-03-02T17:58:49.077Z,73.09
2018-03-02T18:01:15.531Z,74.22
2018-03-02T18:03:41.942Z,72.78
2018-03-02T18:06:08.292Z,71.59
2018-03-02T18:08:34.734Z,71.92
2018-03-02T18:11:01.097Z,72.02
2018-03-02T18:13:27.438Z,71.91
2018-03-02T18:15:53.912Z,72.29
2018-03-02T18:18:20.279Z,72.18
2018-03-02T18:20:46.622Z,73.96
2018-03-02T18:23:12.984Z,73.36
2018-03-02T18:25:39.394Z,72.80
2018-03-02T18:28:05.763Z,75.44
2018-03-02T18:30:32.177Z,73.34
2018-03-02T18:32:58.534Z,72.73
2018-03-02T18:35:24.939Z,72.33
2018-03-02T18:37:51.394Z,73.60
2018-03-02T18:40:17.742Z,73.16
2018-03-02T18:42:44.078Z,72.82
2018-03-02T18:45:10.426Z,72.91
2018-03-02T18:47:36.801Z,75.13
2018-03-02T18:50:03.259Z,73.28
2018-03-02T18:52:29.639Z,72.21
2018-03-02T18:54:55.997Z,71.53
2018-03-02T18:57:22.429Z,71.78
2018-03-02T18:59:48.864Z,70.48
2018-03-02T19:02:15.285Z,70.65
2018-03-02T19:04:41.722Z,71.66
2018-03-02T19:07:08.126Z,70.80
2018-03-02T19:09:34.510Z,70.85
2018-03-02T19:12:00.999Z,70.90
2018-03-02T19:14:27.426Z,72.05
2018-03-02T19:16:53.794Z,72.20
2018-03-02T19:19:20.202Z,71.14
2018-03-02T19:21:46.587Z,70.73
2018-03-02T19:24:13.074Z,71.27
2018-03-02T19:26:39.454Z,71.21
2018-03-02T19:29:05.821Z,70.23
2018-03-02T19:31:32.175Z,73.43
2018-03-02T19:33:58.654Z,72.28
2018-03-02T19:36:25.037Z,70.33
2018-03-02T19:38:51.421Z,70.18
2018-03-02T19:41:17.845Z,70.17
2018-03-02T19:43:44.194Z,70.00
2018-03-02T19:46:10.543Z,70.40
2018-03-02T19:48:37.012Z,71.04
2018-03-02T19:51:03.387Z,71.28
2018-03-02T19:53:29.730Z,71.64
2018-03-02T19:55:56.074Z,72.96
2018-03-02T19:58:22.458Z,72.91
2018-03-02T20:00:48.791Z,72.19
2018-03-02T20:03:15.266Z,71.06
2018-03-02T20:05:41.639Z,70.63
2018-03-02T20:08:08.068Z,71.43
2018-03-02T20:10:34.444Z,71.17
2018-03-02T20:13:00.769Z,71.69
2018-03-02T20:15:27.189Z,71.41
2018-03-02T20:17:53.581Z,71.02
2018-03-02T20:20:19.963Z,70.97
2018-03-02T20:22:46.304Z,71.23
2018-03-02T20:25:12.666Z,71.04
2018-03-02T20:27:39.070Z,71.17
2018-03-02T20:30:05.534Z,71.36
2018-03-02T20:32:31.917Z,70.54
2018-03-02T20:34:58.326Z,70.75
2018-03-02T20:37:24.694Z,70.79
2018-03-02T20:39:51.110Z,70.76
2018-03-02T20:42:17.564Z,70.25
2018-03-02T20:44:43.997Z,69.97
2018-03-02T20:47:10.328Z,70.70
2018-03-02T20:49:36.797Z,71.21
2018-03-02T20:52:10.502Z,71.39
2018-03-02T20:54:36.945Z,71.17
2018-03-02T20:57:03.337Z,71.38
2018-03-02T20:59:29.685Z,71.45
2018-03-02T21:01:56.040Z,72.18
2018-03-02T21:04:22.425Z,71.54
2018-03-02T21:06:48.793Z,71.18
2018-03-02T21:09:15.178Z,70.29
2018-03-02T21:11:41.558Z,70.21
2018-03-02T21:14:07.930Z,70.76
2018-03-02T21:16:34.286Z,70.52
2018-03-02T21:19:00.693Z,70.65
2018-03-02T21:21:27.062Z,71.12
2018-03-02T21:23:53.448Z,70.90
2018-03-02T21:26:19.812Z,71.19
2018-03-02T21:28:46.178Z,71.67
2018-03-02T21:31:12.530Z,71.49
2018-03-02T21:33:38.890Z,71.21
2018-03-02T21:36:05.285Z,71.25
2018-03-02T21:38:31.646Z,71.53
2018-03-02T21:40:58.039Z,72.54
2018-03-02T21:43:24.445Z,72.31
2018-03-02T21:45:50.795Z,71.91
2018-03-02T21:48:17.174Z,72.22
2018-03-02T21:50:43.544Z,72.54
2018-03-02T21:53:09.903Z,71.58
2018-03-02T21:55:36.322Z,71.85
2018-03-02T21:58:02.705Z,74.00
2018-03-02T22:00:29.061Z,74.90
2018-03-02T22:02:55.536Z,73.01
2018-03-02T22:05:21.915Z,71.76
2018-03-02T22:07:48.282Z,72.78
2018-03-02T22:10:14.630Z,72.58
2018-03-02T22:12:40.998Z,72.29
2018-03-02T22:15:07.356Z,72.71
2018-03-02T22:17:33.783Z,71.74
2018-03-02T22:20:00.119Z,70.76
2018-03-02T22:22:26.486Z,70.40
2018-03-02T22:24:52.934Z,69.82
2018-03-02T22:27:19.259Z,69.77
2018-03-02T22:29:45.625Z,71.14
2018-03-02T22:32:12.014Z,69.96
2018-03-02T22:34:38.358Z,69.54
2018-03-02T22:37:04.750Z,70.98
2018-03-02T22:39:31.178Z,70.78
2018-03-02T22:41:57.565Z,70.55
2018-03-02T22:44:23.973Z,70.75
2018-03-02T22:46:50.358Z,70.43
2018-03-02T22:49:16.694Z,70.89
2018-03-02T22:51:43.053Z,71.07
2018-03-02T22:54:09.457Z,71.80
2018-03-02T22:56:35.850Z,70.90
2018-03-02T22:59:02.238Z,71.36
2018-03-02T23:01:28.610Z,71.50
2018-03-02T23:03:54.986Z,71.04
2018-03-02T23:06:21.350Z,71.02
2018-03-02T23:08:47.738Z,72.12
2018-03-02T23:11:14.197Z,71.35
2018-03-02T23:13:40.677Z,70.99
2018-03-02T23:16:07.066Z,71.60
2018-03-02T23:18:33.460Z,71.41
2018-03-02T23:20:59.852Z,71.74
2018-03-02T23:23:26.251Z,72.05
2018-03-02T23:25:52.611Z,73.78
2018-03-02T23:28:19.045Z,73.62
2018-03-02T23:30:45.425Z,73.21
2018-03-02T23:33:11.833Z,72.61
2018-03-02T23:35:38.226Z,72.13
2018-03-02T23:38:04.616Z,72.01
2018-03-02T23:40:31.013Z,72.45
2018-03-02T23:42:57.411Z,72.57
2018-03-02T23:45:23.823Z,72.13
2018-03-02T23:47:50.234Z,72.01
2018-03-02T23:50:16.638Z,72.34
2018-03-02T23:52:43.046Z,72.26
2018-03-02T23:55:09.434Z,72.31
2018-03-02T23:57:35.809Z,72.47
